createdAt,value
2022-09-10T00:00:10.978Z,17.575
2022-09-10T00:01:08.978Z,17.59
2022-09-10T00:02:08.616Z,17.585
2022-09-10T00:03:08.035Z,17.575
2022-09-10T00:04:09.298Z,17.57
2022-09-10T00:05:09.120Z,17.58
2022-09-10T00:06:07.843Z,17.59
2022-09-10T00:07:11.865Z,17.6
2022-09-10T00:08:11.255Z,17.585
2022-09-10T00:09:10.112Z,17.57
2022-09-10T00:10:08.566Z,17.58
2022-09-10T00:11:08.993Z,17.565
2022-09-10T00:12:11.813Z,17.565
2022-09-10T00:13:11.811Z,17.58
2022-09-10T00:14:07.968Z,17.605
2022-09-10T00:15:08.735Z,17.6258
2022-09-10T00:16:11.991Z,17.626
2022-09-10T00:17:08.564Z,17.637
2022-09-10T00:18:08.074Z,17.649
2022-09-10T00:19:07.967Z,17.666
2022-09-10T00:20:09.501Z,17.672
2022-09-10T00:21:09.079Z,17.66
2022-09-10T00:22:09.205Z,17.637
2022-09-10T00:23:08.550Z,17.6258
2022-09-10T00:24:07.717Z,17.643
2022-09-10T00:25:13.045Z,17.6316
2022-09-10T00:26:09.215Z,17.615
2022-09-10T00:27:09.719Z,17.595
2022-09-10T00:28:09.359Z,17.6258
2022-09-10T00:29:07.793Z,17.595
2022-09-10T00:30:08.643Z,17.585
2022-09-10T00:31:11.762Z,17.58
2022-09-10T00:32:09.276Z,17.56
2022-09-10T00:33:08.198Z,17.59
2022-09-10T00:34:07.345Z,17.621
2022-09-10T00:35:09.502Z,17.58
2022-09-10T00:36:09.001Z,17.615
2022-09-10T00:37:08.551Z,17.615
2022-09-10T00:38:09.547Z,17.615
2022-09-10T00:39:08.148Z,17.585
2022-09-10T00:40:08.343Z,17.57
2022-09-10T00:41:09.334Z,17.555
2022-09-10T00:42:11.111Z,17.543
2022-09-10T00:43:07.839Z,17.5507
2022-09-10T00:44:08.526Z,17.575
2022-09-10T00:45:09.222Z,17.605
2022-09-10T00:46:11.587Z,17.61
2022-09-10T00:47:09.546Z,17.587
2022-09-10T00:48:08.081Z,17.6209
2022-09-10T00:49:08.087Z,17.6061
2022-09-10T00:50:11.741Z,17.5709
2022-09-10T00:51:08.925Z,17.5784
2022-09-10T00:52:08.594Z,17.5981
2022-09-10T00:53:08.563Z,17.57
2022-09-10T00:54:08.327Z,17.56
2022-09-10T00:55:08.813Z,17.545
2022-09-10T00:56:09.632Z,17.555
2022-09-10T00:57:09.331Z,17.555
2022-09-10T00:58:08.474Z,17.56
2022-09-10T00:59:08.476Z,17.55
2022-09-10T01:00:08.467Z,17.55
2022-09-10T01:01:08.132Z,17.56
2022-09-10T01:02:09.332Z,17.585
2022-09-10T01:03:07.538Z,17.565
2022-09-10T01:04:07.846Z,17.57
2022-09-10T01:05:09.484Z,17.56
2022-09-10T01:06:08.720Z,17.575
2022-09-10T01:07:09.006Z,17.57
2022-09-10T01:08:09.623Z,17.535
2022-09-10T01:09:07.991Z,17.525
2022-09-10T01:10:09.178Z,17.55
2022-09-10T01:11:11.012Z,17.545
2022-09-10T01:12:08.531Z,17.535
2022-09-10T01:13:08.149Z,17.535
2022-09-10T01:14:08.622Z,17.535
2022-09-10T01:15:08.782Z,17.545
2022-09-10T01:16:08.921Z,17.545
2022-09-10T01:17:11.621Z,17.555
2022-09-10T01:18:10.726Z,17.56
2022-09-10T01:19:07.508Z,17.56
2022-09-10T01:20:09.569Z,17.565
2022-09-10T01:21:11.176Z,17.575
2022-09-10T01:22:12.124Z,17.585
2022-09-10T01:23:17.005Z,17.575
2022-09-10T01:24:07.951Z,17.59
2022-09-10T01:25:08.700Z,17.605
2022-09-10T01:26:09.218Z,17.595
2022-09-10T01:27:08.589Z,17.615
2022-09-10T01:28:08.554Z,17.637
2022-09-10T01:29:08.395Z,17.643
2022-09-10T01:30:08.275Z,17.649
2022-09-10T01:31:12.145Z,17.649
2022-09-10T01:32:09.076Z,17.666
2022-09-10T01:33:08.594Z,17.677
2022-09-10T01:34:07.699Z,17.695
2022-09-10T01:35:08.887Z,17.7
2022-09-10T01:36:09.364Z,17.74
2022-09-10T01:37:12.300Z,17.735
2022-09-10T01:38:12.271Z,17.75
2022-09-10T01:39:10.715Z,17.76
2022-09-10T01:40:12.148Z,17.77
2022-09-10T01:41:12.379Z,17.745
2022-09-10T01:42:09.569Z,17.78
2022-09-10T01:43:09.262Z,17.775
2022-09-10T01:44:07.448Z,17.785
2022-09-10T01:45:08.833Z,17.78
2022-09-10T01:46:08.597Z,17.805
2022-09-10T01:47:08.714Z,17.785
2022-09-10T01:48:08.724Z,17.79
2022-09-10T01:49:07.989Z,17.805
2022-09-10T01:50:09.813Z,17.805
2022-09-10T01:51:09.264Z,17.8158
2022-09-10T01:52:09.107Z,17.8158
2022-09-10T01:53:09.518Z,17.827
2022-09-10T01:54:08.836Z,17.827
2022-09-10T01:55:12.407Z,17.827
2022-09-10T01:56:08.983Z,17.862
2022-09-10T01:57:09.429Z,17.878
2022-09-10T01:58:10.112Z,17.895
2022-09-10T01:59:08.243Z,17.92
2022-09-10T02:00:08.281Z,17.94
2022-09-10T02:01:09.121Z,17.96
2022-09-10T02:02:09.254Z,17.955
2022-09-10T02:03:09.722Z,17.96
2022-09-10T02:04:07.822Z,17.97
2022-09-10T02:05:08.600Z,17.945
2022-09-10T02:06:09.299Z,17.97
2022-09-10T02:07:09.217Z,17.985
2022-09-10T02:08:08.002Z,17.98
2022-09-10T02:09:08.772Z,17.985
2022-09-10T02:10:09.054Z,18.005
2022-09-10T02:11:08.728Z,18.0054
2022-09-10T02:12:09.693Z,17.9861
2022-09-10T02:13:10.450Z,17.989
2022-09-10T02:14:08.270Z,17.9584
2022-09-10T02:15:07.895Z,17.9509
2022-09-10T02:16:09.473Z,17.9492
2022-09-10T02:17:11.907Z,17.934
2022-09-10T02:18:08.792Z,17.9307
2022-09-10T02:19:07.664Z,17.9181
2022-09-10T02:20:09.612Z,17.8938
2022-09-10T02:21:09.021Z,17.884
2022-09-10T02:22:09.425Z,17.853
2022-09-10T02:23:09.224Z,17.848
2022-09-10T02:24:08.161Z,17.827
2022-09-10T02:25:09.398Z,17.839
2022-09-10T02:26:09.180Z,17.833
2022-09-10T02:27:09.099Z,17.839
2022-09-10T02:28:08.859Z,17.8216
2022-09-10T02:29:09.396Z,17.833
2022-09-10T02:30:11.926Z,17.833
2022-09-10T02:31:08.835Z,17.827
2022-09-10T02:32:08.104Z,17.833
2022-09-10T02:33:08.013Z,17.827
2022-09-10T02:34:08.432Z,17.839
2022-09-10T02:35:08.325Z,17.827
2022-09-10T02:36:09.093Z,17.85
2022-09-10T02:37:09.102Z,17.839
2022-09-10T02:38:07.315Z,17.845
2022-09-10T02:39:08.483Z,17.873
2022-09-10T02:40:08.190Z,17.88
2022-09-10T02:41:07.905Z,17.885
2022-09-10T02:42:09.636Z,17.9
2022-09-10T02:43:09.052Z,17.895
2022-09-10T02:44:07.752Z,17.915
2022-09-10T02:45:09.405Z,17.925
2022-09-10T02:46:08.713Z,17.915
2022-09-10T02:47:11.059Z,17.925
2022-09-10T02:48:12.216Z,17.92
2022-09-10T02:49:07.979Z,17.935
2022-09-10T02:50:12.208Z,17.96
2022-09-10T02:51:08.485Z,17.945
2022-09-10T02:52:09.076Z,17.92
2022-09-10T02:53:08.056Z,17.89
2022-09-10T02:54:08.038Z,17.873
2022-09-10T02:55:08.513Z,17.8683
2022-09-10T02:56:10.022Z,17.85
2022-09-10T02:57:09.021Z,17.862
2022-09-10T02:58:10.074Z,17.856
2022-09-10T02:59:08.606Z,17.8683
2022-09-10T03:00:08.928Z,17.884
2022-09-10T03:01:08.184Z,17.9
2022-09-10T03:02:12.254Z,17.935
2022-09-10T03:03:11.172Z,17.955
2022-09-10T03:04:09.389Z,17.965
2022-09-10T03:05:09.099Z,17.99
2022-09-10T03:06:09.233Z,18
2022-09-10T03:07:09.431Z,17.98
2022-09-10T03:08:08.091Z,18.01
2022-09-10T03:09:08.062Z,18.015
2022-09-10T03:10:09.527Z,18.01
2022-09-10T03:11:08.224Z,18.015
2022-09-10T03:12:08.591Z,18.01
2022-09-10T03:13:08.829Z,18.025
2022-09-10T03:14:08.200Z,18.025
2022-09-10T03:15:08.624Z,18.03
2022-09-10T03:16:12.239Z,18.04
2022-09-10T03:17:12.742Z,18.04
2022-09-10T03:18:09.086Z,18.04
2022-09-10T03:19:08.568Z,18.06
2022-09-10T03:20:08.240Z,18.065
2022-09-10T03:21:09.030Z,18.045
2022-09-10T03:22:08.936Z,18.025
2022-09-10T03:23:07.989Z,18.025
2022-09-10T03:24:15.259Z,18.04
2022-09-10T03:25:08.796Z,18.02
2022-09-10T03:26:08.907Z,18.005
2022-09-10T03:27:09.025Z,18
2022-09-10T03:28:07.607Z,18.005
2022-09-10T03:29:08.530Z,17.995
2022-09-10T03:30:11.516Z,17.97
2022-09-10T03:31:09.471Z,17.94
2022-09-10T03:32:08.172Z,17.93
2022-09-10T03:33:08.533Z,17.935
2022-09-10T03:34:09.842Z,17.925
2022-09-10T03:35:09.333Z,17.91
2022-09-10T03:36:08.519Z,17.89
2022-09-10T03:37:09.727Z,17.8791
2022-09-10T03:38:09.219Z,17.8791
2022-09-10T03:39:08.103Z,17.8672
2022-09-10T03:40:09.126Z,17.842
2022-09-10T03:41:09.414Z,17.85
2022-09-10T03:42:08.429Z,17.8045
2022-09-10T03:43:09.709Z,17.8053
2022-09-10T03:44:07.736Z,17.7881
2022-09-10T03:45:10.448Z,17.805
2022-09-10T03:46:11.352Z,17.805
2022-09-10T03:47:09.421Z,17.8108
2022-09-10T03:48:09.116Z,17.8108
2022-09-10T03:49:08.448Z,17.796
2022-09-10T03:50:08.488Z,17.7827
2022-09-10T03:51:09.403Z,17.785
2022-09-10T03:52:09.821Z,17.81
2022-09-10T03:53:11.608Z,17.8
2022-09-10T03:54:08.084Z,17.785
2022-09-10T03:55:09.142Z,17.795
2022-09-10T03:56:09.515Z,17.795
2022-09-10T03:57:08.565Z,17.79
2022-09-10T03:58:09.483Z,17.8108
2022-09-10T03:59:08.396Z,17.8
2022-09-10T04:00:08.328Z,17.77
2022-09-10T04:01:09.717Z,17.77
2022-09-10T04:02:09.370Z,17.775
2022-09-10T04:03:09.683Z,17.775
2022-09-10T04:04:08.471Z,17.78
2022-09-10T04:05:08.095Z,17.79
2022-09-10T04:06:09.181Z,17.785
2022-09-10T04:07:09.177Z,17.76
2022-09-10T04:08:08.784Z,17.74
2022-09-10T04:09:08.277Z,17.75
2022-09-10T04:10:08.878Z,17.75
2022-09-10T04:11:09.323Z,17.745
2022-09-10T04:12:11.759Z,17.75
2022-09-10T04:13:09.176Z,17.73
2022-09-10T04:14:08.619Z,17.72
2022-09-10T04:15:08.580Z,17.73
2022-09-10T04:16:08.089Z,17.71
2022-09-10T04:17:12.192Z,17.715
2022-09-10T04:18:09.216Z,17.71
2022-09-10T04:19:08.227Z,17.705
2022-09-10T04:20:08.900Z,17.694
2022-09-10T04:21:08.960Z,17.704
2022-09-10T04:22:08.150Z,17.71
2022-09-10T04:23:09.905Z,17.72
2022-09-10T04:24:09.599Z,17.71
2022-09-10T04:25:08.479Z,17.699
2022-09-10T04:26:07.956Z,17.705
2022-09-10T04:27:08.951Z,17.725
2022-09-10T04:28:07.972Z,17.725
2022-09-10T04:29:09.334Z,17.74
2022-09-10T04:30:08.545Z,17.745
2022-09-10T04:31:08.487Z,17.745
2022-09-10T04:32:08.765Z,17.76
2022-09-10T04:33:10.565Z,17.755
2022-09-10T04:34:07.671Z,17.76
2022-09-10T04:35:09.618Z,17.765
2022-09-10T04:36:11.620Z,17.765
2022-09-10T04:37:09.854Z,17.755
2022-09-10T04:38:11.817Z,17.785
2022-09-10T04:39:08.628Z,17.78
2022-09-10T04:40:11.053Z,17.785
2022-09-10T04:41:08.695Z,17.785
2022-09-10T04:42:08.449Z,17.805
2022-09-10T04:43:11.448Z,17.791
2022-09-10T04:44:07.869Z,17.805
2022-09-10T04:45:09.063Z,17.785
2022-09-10T04:46:08.505Z,17.785
2022-09-10T04:47:09.173Z,17.81
2022-09-10T04:48:11.601Z,17.8158
2022-09-10T04:49:07.885Z,17.833
2022-09-10T04:50:08.128Z,17.827
2022-09-10T04:51:16.912Z,17.845
2022-09-10T04:52:08.705Z,17.85
2022-09-10T04:53:08.365Z,17.85
2022-09-10T04:54:07.543Z,17.856
2022-09-10T04:55:09.489Z,17.862
2022-09-10T04:56:11.212Z,17.856
2022-09-10T04:57:09.605Z,17.845
2022-09-10T04:58:09.064Z,17.861
2022-09-10T04:59:07.414Z,17.833
2022-09-10T05:00:12.367Z,17.795
2022-09-10T05:01:09.047Z,17.775
2022-09-10T05:02:09.179Z,17.775
2022-09-10T05:03:08.936Z,17.76
2022-09-10T05:04:08.452Z,17.73
2022-09-10T05:05:08.521Z,17.695
2022-09-10T05:06:08.882Z,17.71
2022-09-10T05:07:09.692Z,17.715
2022-09-10T05:08:08.293Z,17.695
2022-09-10T05:09:07.845Z,17.689
2022-09-10T05:10:09.145Z,17.683
2022-09-10T05:11:08.134Z,17.672
2022-09-10T05:12:08.096Z,17.6836
2022-09-10T05:13:08.711Z,17.663
2022-09-10T05:14:07.735Z,17.658
2022-09-10T05:15:09.599Z,17.652
2022-09-10T05:16:12.636Z,17.651
2022-09-10T05:17:09.161Z,17.666
2022-09-10T05:18:08.591Z,17.655
2022-09-10T05:19:08.648Z,17.657
2022-09-10T05:20:08.064Z,17.6772
2022-09-10T05:21:09.194Z,17.6783
2022-09-10T05:22:09.252Z,17.655
2022-09-10T05:23:08.980Z,17.6316
2022-09-10T05:24:08.496Z,17.6208
2022-09-10T05:25:08.720Z,17.6
2022-09-10T05:26:12.535Z,17.6
2022-09-10T05:27:08.980Z,17.595
2022-09-10T05:28:09.287Z,17.59
2022-09-10T05:29:07.976Z,17.58
2022-09-10T05:30:09.037Z,17.58
2022-09-10T05:31:09.575Z,17.585
2022-09-10T05:32:09.004Z,17.59
2022-09-10T05:33:08.825Z,17.6
2022-09-10T05:34:08.311Z,17.61
2022-09-10T05:35:08.879Z,17.585
2022-09-10T05:36:08.797Z,17.605
2022-09-10T05:37:12.471Z,17.6
2022-09-10T05:38:09.573Z,17.6258
2022-09-10T05:39:08.456Z,17.6208
2022-09-10T05:40:08.295Z,17.637
2022-09-10T05:41:09.797Z,17.66
2022-09-10T05:42:12.270Z,17.704
2022-09-10T05:43:09.599Z,17.71
2022-09-10T05:44:08.085Z,17.72
2022-09-10T05:45:09.405Z,17.755
2022-09-10T05:46:09.123Z,17.785
2022-09-10T05:47:08.933Z,17.8158
2022-09-10T05:48:08.870Z,17.805
2022-09-10T05:49:09.620Z,17.839
2022-09-10T05:50:09.000Z,17.8791
2022-09-10T05:51:11.793Z,17.92
2022-09-10T05:52:09.062Z,17.965
2022-09-10T05:53:08.775Z,17.995
2022-09-10T05:54:08.045Z,18.04
2022-09-10T05:55:08.496Z,18.09
2022-09-10T05:56:08.895Z,18.149
2022-09-10T05:57:09.104Z,18.215
2022-09-10T05:58:08.255Z,18.215
2022-09-10T05:59:08.503Z,18.26
2022-09-10T06:00:08.768Z,18.28
2022-09-10T06:01:11.803Z,18.31
2022-09-10T06:02:09.062Z,18.333
2022-09-10T06:03:08.992Z,18.39
2022-09-10T06:04:07.958Z,18.41
2022-09-10T06:05:09.056Z,18.46
2022-09-10T06:06:09.633Z,18.47
2022-09-10T06:07:09.374Z,18.52
2022-09-10T06:08:08.936Z,18.55
2022-09-10T06:09:10.449Z,18.585
2022-09-10T06:10:08.591Z,18.6208
2022-09-10T06:11:12.589Z,18.688
2022-09-10T06:12:08.788Z,18.73
2022-09-10T06:13:08.816Z,18.745
2022-09-10T06:14:07.734Z,18.705
2022-09-10T06:15:09.685Z,18.695
2022-09-10T06:16:08.565Z,18.688
2022-09-10T06:17:11.024Z,18.705
2022-09-10T06:18:07.908Z,18.71
2022-09-10T06:19:10.476Z,18.73
2022-09-10T06:20:11.171Z,18.76
2022-09-10T06:21:08.652Z,18.765
2022-09-10T06:22:08.847Z,18.76
2022-09-10T06:23:08.599Z,18.76
2022-09-10T06:24:08.219Z,18.785
2022-09-10T06:25:08.883Z,18.795
2022-09-10T06:26:09.460Z,18.795
2022-09-10T06:27:09.306Z,18.805
2022-09-10T06:28:08.115Z,18.775
2022-09-10T06:29:08.261Z,18.8108
2022-09-10T06:30:10.869Z,18.827
2022-09-10T06:31:09.060Z,18.856
2022-09-10T06:32:08.921Z,18.862
2022-09-10T06:33:08.996Z,18.89
2022-09-10T06:34:08.064Z,18.895
2022-09-10T06:35:09.528Z,18.895
2022-09-10T06:36:08.538Z,18.91
2022-09-10T06:37:08.761Z,18.945
2022-09-10T06:38:08.386Z,18.965
2022-09-10T06:39:08.295Z,18.985
2022-09-10T06:40:08.266Z,19
2022-09-10T06:41:09.815Z,18.9815
2022-09-10T06:42:12.397Z,18.97
2022-09-10T06:43:09.407Z,19.015
2022-09-10T06:44:07.947Z,19.06
2022-09-10T06:45:09.061Z,19.1
2022-09-10T06:46:24.823Z,19.1015
2022-09-10T06:48:36.992Z,19.145
2022-09-10T06:48:53.573Z,19.16
2022-09-10T06:49:07.826Z,19.205
2022-09-10T06:50:09.624Z,19.25
2022-09-10T06:51:09.001Z,19.285
2022-09-10T06:52:09.827Z,19.27
2022-09-10T06:53:10.815Z,19.245
2022-09-10T06:54:08.449Z,19.255
2022-09-10T06:55:08.672Z,19.26
2022-09-10T06:56:11.802Z,19.265
2022-09-10T06:57:08.866Z,19.275
2022-09-10T06:58:08.644Z,19.28
2022-09-10T06:59:07.977Z,19.26
2022-09-10T07:00:11.281Z,19.29
2022-09-10T07:01:12.220Z,19.345
2022-09-10T07:02:08.404Z,19.3158
2022-09-10T07:03:09.957Z,19.327
2022-09-10T07:04:07.374Z,19.322
2022-09-10T07:05:09.662Z,19.328
2022-09-10T07:06:09.368Z,19.29
2022-09-10T07:07:08.860Z,19.275
2022-09-10T07:08:09.615Z,19.27
2022-09-10T07:09:08.400Z,19.285
2022-09-10T07:10:08.325Z,19.29
2022-09-10T07:11:12.619Z,19.3
2022-09-10T07:12:12.043Z,19.3158
2022-09-10T07:13:09.040Z,19.3108
2022-09-10T07:14:09.659Z,19.3158
2022-09-10T07:15:08.704Z,19.362
2022-09-10T07:16:09.355Z,19.366
2022-09-10T07:17:12.694Z,19.41
2022-09-10T07:18:11.742Z,19.43
2022-09-10T07:19:08.188Z,19.44
2022-09-10T07:20:08.752Z,19.485
2022-09-10T07:21:09.496Z,19.505
2022-09-10T07:22:12.604Z,19.53
2022-09-10T07:23:16.304Z,19.53
2022-09-10T07:24:08.562Z,19.58
2022-09-10T07:25:09.298Z,19.627
2022-09-10T07:26:08.705Z,19.66
2022-09-10T07:27:09.550Z,19.683
2022-09-10T07:28:08.431Z,19.73
2022-09-10T07:29:09.275Z,19.765
2022-09-10T07:30:08.545Z,19.785
2022-09-10T07:31:09.231Z,19.79
2022-09-10T07:32:13.252Z,19.81
2022-09-10T07:33:10.756Z,19.8216
2022-09-10T07:34:07.786Z,19.9
2022-09-10T07:35:08.700Z,19.915
2022-09-10T07:36:09.270Z,19.915
2022-09-10T07:37:09.333Z,19.905
2022-09-10T07:38:08.653Z,19.95
2022-09-10T07:39:08.920Z,19.945
2022-09-10T07:40:08.256Z,19.94
2022-09-10T07:41:08.886Z,19.975
2022-09-10T07:42:09.718Z,20.05
2022-09-10T07:43:09.091Z,20.07
2022-09-10T07:44:07.422Z,20.1208
2022-09-10T07:45:09.498Z,20.12
2022-09-10T07:46:11.823Z,20.2
2022-09-10T07:47:09.608Z,20.225
2022-09-10T07:48:07.604Z,20.245
2022-09-10T07:49:08.714Z,20.306
2022-09-10T07:50:09.440Z,20.322
2022-09-10T07:51:08.651Z,20.339
2022-09-10T07:52:09.597Z,20.39
2022-09-10T07:53:10.904Z,20.435
2022-09-10T07:54:08.045Z,20.47
2022-09-10T07:55:08.683Z,20.5
2022-09-10T07:56:09.140Z,20.54
2022-09-10T07:57:09.073Z,20.58
2022-09-10T07:58:08.604Z,20.605
2022-09-10T07:59:08.436Z,20.632
2022-09-10T08:00:08.403Z,20.6783
2022-09-10T08:01:09.858Z,20.715
2022-09-10T08:02:09.212Z,20.735
2022-09-10T08:03:08.817Z,20.735
2022-09-10T08:04:07.618Z,20.725
2022-09-10T08:05:11.372Z,20.7
2022-09-10T08:06:08.700Z,20.6841
2022-09-10T08:07:09.602Z,20.6891
2022-09-10T08:08:09.033Z,20.666
2022-09-10T08:09:08.743Z,20.655
2022-09-10T08:10:11.032Z,20.61
2022-09-10T08:11:11.999Z,20.59
2022-09-10T08:12:09.076Z,20.5927
2022-09-10T08:13:08.850Z,20.5927
2022-09-10T08:14:08.103Z,20.596
2022-09-10T08:15:11.894Z,20.609
2022-09-10T08:16:09.183Z,20.655
2022-09-10T08:17:12.103Z,20.655
2022-09-10T08:18:07.941Z,20.6316
2022-09-10T08:19:08.630Z,20.632
2022-09-10T08:20:08.982Z,20.649
2022-09-10T08:21:09.159Z,20.66
2022-09-10T08:22:13.274Z,20.649
2022-09-10T08:23:08.943Z,20.672
2022-09-10T08:24:10.212Z,20.73
2022-09-10T08:25:07.915Z,20.735
2022-09-10T08:26:09.586Z,20.74
2022-09-10T08:27:08.781Z,20.73
2022-09-10T08:28:09.401Z,20.73
2022-09-10T08:29:07.885Z,20.735
2022-09-10T08:30:09.385Z,20.715
2022-09-10T08:31:09.342Z,20.694
2022-09-10T08:32:11.661Z,20.71
2022-09-10T08:33:09.114Z,20.735
2022-09-10T08:34:07.448Z,20.75
2022-09-10T08:35:12.115Z,20.765
2022-09-10T08:36:09.553Z,20.76
2022-09-10T08:37:09.196Z,20.74
2022-09-10T08:38:09.331Z,20.725
2022-09-10T08:39:08.832Z,20.705
2022-09-10T08:40:08.848Z,20.695
2022-09-10T08:41:09.028Z,20.643
2022-09-10T08:42:09.478Z,20.58
2022-09-10T08:43:09.028Z,20.545
2022-09-10T08:44:08.571Z,20.515
2022-09-10T08:45:11.365Z,20.43
2022-09-10T08:46:11.899Z,20.345
2022-09-10T08:47:09.038Z,20.26
2022-09-10T08:48:11.949Z,20.225
2022-09-10T08:49:08.293Z,20.1841
2022-09-10T08:50:11.891Z,20.172
2022-09-10T08:51:09.720Z,20.143
2022-09-10T08:52:08.606Z,20.12
2022-09-10T08:53:07.644Z,20.115
2022-09-10T08:54:08.430Z,20.12
2022-09-10T08:55:08.779Z,20.1208
2022-09-10T08:56:11.544Z,20.115
2022-09-10T08:57:08.943Z,20.11
2022-09-10T08:58:10.008Z,20.12
2022-09-10T08:59:07.927Z,20.1258
2022-09-10T09:00:09.613Z,20.1258
2022-09-10T09:01:12.168Z,20.1258
2022-09-10T09:02:09.623Z,20.1208
2022-09-10T09:03:12.113Z,20.121
2022-09-10T09:04:08.431Z,20.137
2022-09-10T09:05:08.754Z,20.16
2022-09-10T09:06:09.111Z,20.155
2022-09-10T09:07:09.035Z,20.1316
2022-09-10T09:08:09.805Z,20.166
2022-09-10T09:09:10.346Z,20.19
2022-09-10T09:10:08.024Z,20.21
2022-09-10T09:11:09.330Z,20.215
2022-09-10T09:12:09.062Z,20.245
2022-09-10T09:13:10.452Z,20.28
2022-09-10T09:14:07.816Z,20.311
2022-09-10T09:15:13.724Z,20.316
2022-09-10T09:16:08.397Z,20.3108
2022-09-10T09:17:12.292Z,20.367
2022-09-10T09:18:08.368Z,20.39
2022-09-10T09:19:07.932Z,20.45
2022-09-10T09:20:08.855Z,20.49
2022-09-10T09:21:09.171Z,20.545
2022-09-10T09:22:09.359Z,20.565
2022-09-10T09:23:11.099Z,20.595
2022-09-10T09:24:13.991Z,20.6
2022-09-10T09:25:09.449Z,20.615
2022-09-10T09:26:09.495Z,20.6
2022-09-10T09:27:09.163Z,20.595
2022-09-10T09:28:08.456Z,20.605
2022-09-10T09:29:08.134Z,20.6316
2022-09-10T09:30:08.554Z,20.649
2022-09-10T09:31:14.233Z,20.694
2022-09-10T09:32:09.104Z,20.735
2022-09-10T09:33:11.589Z,20.755
2022-09-10T09:34:07.707Z,20.745
2022-09-10T09:35:09.752Z,20.74
2022-09-10T09:36:08.707Z,20.755
2022-09-10T09:37:08.353Z,20.7772
2022-09-10T09:38:09.800Z,20.8007
2022-09-10T09:39:09.704Z,20.848
2022-09-10T09:40:08.993Z,20.85
2022-09-10T09:41:12.626Z,20.836
2022-09-10T09:42:08.468Z,20.799
2022-09-10T09:43:11.177Z,20.773
2022-09-10T09:44:07.585Z,20.7827
2022-09-10T09:45:11.416Z,20.8216
2022-09-10T09:46:08.962Z,20.833
2022-09-10T09:47:09.314Z,20.8227
2022-09-10T09:48:07.875Z,20.8216
2022-09-10T09:49:08.590Z,20.817
2022-09-10T09:50:08.778Z,20.79
2022-09-10T09:51:08.902Z,20.76
2022-09-10T09:52:09.531Z,20.72
2022-09-10T09:53:08.004Z,20.725
2022-09-10T09:54:39.399Z,20.745
2022-09-10T09:55:22.597Z,20.75
2022-09-10T09:56:08.489Z,20.77
2022-09-10T09:57:09.276Z,20.72
2022-09-10T09:58:10.904Z,20.7
2022-09-10T09:59:09.183Z,20.69
2022-09-10T10:00:09.463Z,20.688
2022-09-10T10:01:08.999Z,20.71
2022-09-10T10:02:08.445Z,20.745
2022-09-10T10:03:09.468Z,20.74
2022-09-10T10:04:07.483Z,20.72
2022-09-10T10:05:08.582Z,20.75
2022-09-10T10:06:09.342Z,20.73
2022-09-10T10:07:09.289Z,20.72
2022-09-10T10:08:11.197Z,20.666
2022-09-10T10:09:10.416Z,20.62
2022-09-10T10:10:08.173Z,20.6
2022-09-10T10:11:09.370Z,20.58
2022-09-10T10:12:09.012Z,20.56
2022-09-10T10:13:12.076Z,20.525
2022-09-10T10:14:08.247Z,20.5
2022-09-10T10:15:08.740Z,20.5
2022-09-10T10:16:11.924Z,20.495
2022-09-10T10:17:12.087Z,20.495
2022-09-10T10:18:12.444Z,20.49
2022-09-10T10:19:08.387Z,20.5
2022-09-10T10:20:09.287Z,20.51
2022-09-10T10:21:09.474Z,20.52
2022-09-10T10:22:09.373Z,20.575
2022-09-10T10:23:08.886Z,20.621
2022-09-10T10:24:08.561Z,20.649
2022-09-10T10:25:08.862Z,20.649
2022-09-10T10:26:09.182Z,20.683
2022-09-10T10:27:13.014Z,20.715
2022-09-10T10:28:09.023Z,20.74
2022-09-10T10:29:10.484Z,20.79
2022-09-10T10:30:09.092Z,20.816
2022-09-10T10:31:12.639Z,20.805
2022-09-10T10:32:09.247Z,20.833
2022-09-10T10:33:09.168Z,20.89
2022-09-10T10:34:08.447Z,20.915
2022-09-10T10:35:09.146Z,20.8683
2022-09-10T10:36:09.079Z,20.88
2022-09-10T10:37:10.029Z,20.839
2022-09-10T10:38:08.213Z,20.839
2022-09-10T10:39:07.686Z,20.839
2022-09-10T10:40:10.406Z,20.827
2022-09-10T10:41:12.415Z,20.85
2022-09-10T10:42:08.866Z,20.915
2022-09-10T10:43:09.273Z,20.92
2022-09-10T10:44:07.690Z,20.955
2022-09-10T10:45:09.338Z,21
2022-09-10T10:46:11.906Z,21.04
2022-09-10T10:47:09.149Z,21.055
2022-09-10T10:48:09.433Z,21.121
2022-09-10T10:49:07.992Z,21.19
2022-09-10T10:50:08.399Z,21.209
2022-09-10T10:51:09.697Z,21.245
2022-09-10T10:52:08.528Z,21.285
2022-09-10T10:53:08.863Z,21.275
2022-09-10T10:54:09.603Z,21.245
2022-09-10T10:55:08.739Z,21.285
2022-09-10T10:56:11.322Z,21.29
2022-09-10T10:57:09.135Z,21.29
2022-09-10T10:58:08.437Z,21.265
2022-09-10T10:59:08.533Z,21.24
2022-09-10T11:00:09.009Z,21.1841
2022-09-10T11:01:09.883Z,21.188
2022-09-10T11:02:08.753Z,21.11
2022-09-10T11:03:07.944Z,21.1
2022-09-10T11:04:09.601Z,21.065
2022-09-10T11:05:08.749Z,21.0327
2022-09-10T11:06:08.972Z,21.0184
2022-09-10T11:07:09.159Z,21.015
2022-09-10T11:08:08.556Z,21.005
2022-09-10T11:09:07.848Z,21
2022-09-10T11:10:08.857Z,21.023
2022-09-10T11:11:09.323Z,21.05
2022-09-10T11:12:09.066Z,21.0927
2022-09-10T11:13:08.873Z,21.141
2022-09-10T11:14:08.404Z,21.17
2022-09-10T11:15:08.146Z,21.137
2022-09-10T11:16:09.512Z,21.172
2022-09-10T11:17:12.184Z,21.155
2022-09-10T11:18:08.724Z,21.1783
2022-09-10T11:19:08.100Z,21.199
2022-09-10T11:21:09.305Z,21.245
2022-09-10T11:22:09.394Z,21.29
2022-09-10T11:23:09.812Z,21.35
2022-09-10T11:24:07.951Z,21.399
2022-09-10T11:25:08.491Z,21.415
2022-09-10T11:26:09.339Z,21.465
2022-09-10T11:27:08.993Z,21.52
2022-09-10T11:28:10.498Z,21.52
2022-09-10T11:29:07.940Z,21.54
2022-09-10T11:30:09.100Z,21.57
2022-09-10T11:31:09.240Z,21.595
2022-09-10T11:32:09.062Z,21.6316
2022-09-10T11:33:12.932Z,21.637
2022-09-10T11:34:10.066Z,21.687
2022-09-10T11:35:08.568Z,21.745
2022-09-10T11:36:09.685Z,21.705
2022-09-10T11:37:09.247Z,21.672
2022-09-10T11:38:07.726Z,21.655
2022-09-10T11:39:08.209Z,21.66
2022-09-10T11:40:08.845Z,21.666
2022-09-10T11:41:09.073Z,21.71
2022-09-10T11:42:09.846Z,21.672
2022-09-10T11:43:09.057Z,21.626
2022-09-10T11:44:07.583Z,21.61
2022-09-10T11:45:09.246Z,21.6208
2022-09-10T11:46:08.578Z,21.61
2022-09-10T11:47:09.597Z,21.555
2022-09-10T11:48:08.067Z,21.5
2022-09-10T11:49:07.952Z,21.48
2022-09-10T11:50:12.427Z,21.383
2022-09-10T11:51:08.647Z,21.3
2022-09-10T11:52:12.158Z,21.235
2022-09-10T11:53:09.030Z,21.16
2022-09-10T11:54:10.454Z,21.07
2022-09-10T11:55:09.608Z,21.02
2022-09-10T11:56:12.106Z,20.965
2022-09-10T11:57:09.215Z,20.91
2022-09-10T11:58:08.876Z,20.85
2022-09-10T11:59:08.954Z,20.806
2022-09-10T12:00:08.480Z,20.76
2022-09-10T12:01:09.002Z,20.725
2022-09-10T12:02:09.398Z,20.71
2022-09-10T12:03:08.373Z,20.72
2022-09-10T12:04:10.954Z,20.73
2022-09-10T12:05:12.104Z,20.7
2022-09-10T12:06:09.578Z,20.705
2022-09-10T12:07:09.393Z,20.72
2022-09-10T12:08:08.633Z,20.715
2022-09-10T12:09:08.676Z,20.72
2022-09-10T12:10:13.517Z,20.683
2022-09-10T12:11:08.965Z,20.683
2022-09-10T12:12:09.369Z,20.6783
2022-09-10T12:13:09.114Z,20.7
2022-09-10T12:14:07.436Z,20.71
2022-09-10T12:15:09.233Z,20.71
2022-09-10T12:16:11.681Z,20.745
2022-09-10T12:17:12.602Z,20.76
2022-09-10T12:18:08.906Z,20.805
2022-09-10T12:19:08.346Z,20.805
2022-09-10T12:20:08.453Z,20.845
2022-09-10T12:21:09.499Z,20.895
2022-09-10T12:22:12.533Z,20.93
2022-09-10T12:23:09.353Z,20.955
2022-09-10T12:24:07.782Z,20.955
2022-09-10T12:25:09.296Z,20.985
2022-09-10T12:26:09.135Z,21.025
2022-09-10T12:27:12.460Z,21.06
2022-09-10T12:28:08.264Z,21.095
2022-09-10T12:29:07.405Z,21.172
2022-09-10T12:30:09.037Z,21.245
2022-09-10T12:31:09.332Z,21.285
2022-09-10T12:32:09.174Z,21.345
2022-09-10T12:33:09.701Z,21.373
2022-09-10T12:34:07.993Z,21.44
2022-09-10T12:35:09.835Z,21.52
2022-09-10T12:36:09.457Z,21.56